sensor_id;sensor_type;location;lat;lon;timestamp;pressure;altitude;pressure_sealevel;temperature;humidity
54882;BME280;40775;51.448;4.742;2024-03-02T00:00:50;99811.06;;;8.36;100.00
54882;BME280;40775;51.448;4.742;2024-03-02T00:03:19;99808.28;;;8.25;100.00
54882;BME280;40775;51.448;4.742;2024-03-02T00:05:51;99817.16;;;8.36;100.00
54882;BME280;40775;51.448;4.742;2024-03-02T00:08:24;99813.56;;;8.28;100.00
54882;BME280;40775;51.448;4.742;2024-03-02T00:10:59;99817.16;;;8.36;100.00
54882;BME280;40775;51.448;4.742;2024-03-02T00:13:26;99816.09;;;8.22;100.00
54882;BME280;40775;51.448;4.742;2024-03-02T00:15:55;99813.53;;;8.25;100.00
54882;BME280;40775;51.448;4.742;2024-03-02T00:18:30;99811.81;;;8.29;100.00
54882;BME280;40775;51.448;4.742;2024-03-02T00:20:58;99803.84;;;8.20;100.00
54882;BME280;40775;51.448;4.742;2024-03-02T00:23:33;99803.84;;;8.20;100.00
54882;BME280;40775;51.448;4.742;2024-03-02T00:26:00;99811.69;;;8.20;100.00
54882;BME280;40775;51.448;4.742;2024-03-02T00:28:35;99801.19;;;8.17;100.00
54882;BME280;40775;51.448;4.742;2024-03-02T00:31:07;99811.63;;;8.15;100.00
54882;BME280;40775;51.448;4.742;2024-03-02T00:33:38;99806.31;;;8.09;100.00
54882;BME280;40775;51.448;4.742;2024-03-02T00:36:07;99799.34;;;8.08;100.00
54882;BME280;40775;51.448;4.742;2024-03-02T00:38:51;99808.94;;;8.11;100.00
54882;BME280;40775;51.448;4.742;2024-03-02T00:44:09;99804.59;;;8.11;100.00
54882;BME280;40775;51.448;4.742;2024-03-02T00:46:40;99802.78;;;8.05;100.00
54882;BME280;40775;51.448;4.742;2024-03-02T00:49:23;99804.56;;;8.08;100.00
54882;BME280;40775;51.448;4.742;2024-03-02T00:51:53;99806.31;;;8.09;100.00
54882;BME280;40775;51.448;4.742;2024-03-02T00:54:23;99814.28;;;8.18;100.00
54882;BME280;40775;51.448;4.742;2024-03-02T00:56:54;99818.50;;;8.07;100.00
54882;BME280;40775;51.448;4.742;2024-03-02T00:59:23;99826.34;;;8.07;100.00
54882;BME280;40775;51.448;4.742;2024-03-02T01:01:51;99819.47;;;8.17;100.00
54882;BME280;40775;51.448;4.742;2024-03-02T01:04:19;99831.50;;;8.02;100.00
54882;BME280;40775;51.448;4.742;2024-03-02T01:06:46;99843.66;;;7.99;100.00
54882;BME280;40775;51.448;4.742;2024-03-02T01:09:13;99843.66;;;7.99;100.00
54882;BME280;40775;51.448;4.742;2024-03-02T01:11:40;99852.38;;;7.99;100.00
54882;BME280;40775;51.448;4.742;2024-03-02T01:14:07;99846.31;;;8.03;100.00
54882;BME280;40775;51.448;4.742;2024-03-02T01:16:34;99833.22;;;8.00;100.00
54882;BME280;40775;51.448;4.742;2024-03-02T01:19:01;99827.00;;;7.94;100.00
54882;BME280;40775;51.448;4.742;2024-03-02T01:21:29;99820.84;;;7.90;100.00
54882;BME280;40775;51.448;4.742;2024-03-02T01:23:56;99827.81;;;7.90;100.00
54882;BME280;40775;51.448;4.742;2024-03-02T01:26:23;99833.97;;;7.93;100.00
54882;BME280;40775;51.448;4.742;2024-03-02T01:28:50;99844.38;;;7.92;100.00
54882;BME280;40775;51.448;4.742;2024-03-02T01:31:17;99853.13;;;7.94;100.00
54882;BME280;40775;51.448;4.742;2024-03-02T01:33:44;99853.25;;;8.01;100.00
54882;BME280;40775;51.448;4.742;2024-03-02T01:36:11;99839.16;;;7.92;100.00
54882;BME280;40775;51.448;4.742;2024-03-02T01:38:38;99821.66;;;7.86;100.00
54882;BME280;40775;51.448;4.742;2024-03-02T01:41:05;99831.25;;;7.86;100.00
54882;BME280;40775;51.448;4.742;2024-03-02T01:43:32;99847.09;;;7.96;100.00
54882;BME280;40775;51.448;4.742;2024-03-02T01:45:59;99847.81;;;7.88;100.00
54882;BME280;40775;51.448;4.742;2024-03-02T01:48:26;99839.94;;;7.85;100.00
54882;BME280;40775;51.448;4.742;2024-03-02T01:50:53;99844.28;;;7.84;100.00
54882;BME280;40775;51.448;4.742;2024-03-02T01:53:21;99856.47;;;7.84;100.00
54882;BME280;40775;51.448;4.742;2024-03-02T01:55:48;99848.69;;;7.87;100.00
54882;BME280;40775;51.448;4.742;2024-03-02T01:58:16;99855.66;;;7.88;100.00
54882;BME280;40775;51.448;4.742;2024-03-02T02:00:43;99849.50;;;7.83;100.00
54882;BME280;40775;51.448;4.742;2024-03-02T02:03:10;99860.03;;;7.89;100.00
54882;BME280;40775;51.448;4.742;2024-03-02T02:05:37;99861.66;;;7.81;100.00
54882;BME280;40775;51.448;4.742;2024-03-02T02:08:04;99855.63;;;7.86;100.00
54882;BME280;40775;51.448;4.742;2024-03-02T02:10:32;99850.31;;;7.79;100.00
54882;BME280;40775;51.448;4.742;2024-03-02T02:12:59;99854.72;;;7.84;100.00
54882;BME280;40775;51.448;4.742;2024-03-02T02:15:30;99853.00;;;7.85;100.00
54882;BME280;40775;51.448;4.742;2024-03-02T02:17:58;99860.03;;;7.89;100.00
54882;BME280;40775;51.448;4.742;2024-03-02T02:20:26;99861.72;;;7.85;100.00
54882;BME280;40775;51.448;4.742;2024-03-02T02:23:03;99853.84;;;7.84;100.00
54882;BME280;40775;51.448;4.742;2024-03-02T02:25:32;99848.66;;;7.85;100.00
54882;BME280;40775;51.448;4.742;2024-03-02T02:27:59;99844.19;;;7.78;100.00
54882;BME280;40775;51.448;4.742;2024-03-02T02:30:29;99837.25;;;7.79;100.00
54882;BME280;40775;51.448;4.742;2024-03-02T02:32:57;99852.91;;;7.77;100.00
54882;BME280;40775;51.448;4.742;2024-03-02T02:35:25;99854.59;;;7.75;100.00
54882;BME280;40775;51.448;4.742;2024-03-02T02:37:54;99851.16;;;7.78;100.00
54882;BME280;40775;51.448;4.742;2024-03-02T02:40:22;99849.34;;;7.73;100.00
54882;BME280;40775;51.448;4.742;2024-03-02T02:42:50;99847.59;;;7.71;100.00
54882;BME280;40775;51.448;4.742;2024-03-02T02:45:19;99842.47;;;7.79;100.00
54882;BME280;40775;51.448;4.742;2024-03-02T02:47:46;99846.72;;;7.72;100.00
54882;BME280;40775;51.448;4.742;2024-03-02T02:50:13;99835.41;;;7.73;100.00
54882;BME280;40775;51.448;4.742;2024-03-02T02:52:42;99831.97;;;7.75;100.00
54882;BME280;40775;51.448;4.742;2024-03-02T02:55:11;99841.47;;;7.69;100.00
54882;BME280;40775;51.448;4.742;2024-03-02T02:57:40;99835.22;;;7.62;100.00
54882;BME280;40775;51.448;4.742;2024-03-02T03:02:47;99837.78;;;7.58;100.00
54882;BME280;40775;51.448;4.742;2024-03-02T03:05:17;99835.06;;;7.50;100.00
54882;BME280;40775;51.448;4.742;2024-03-02T03:07:44;99840.22;;;7.47;100.00
54882;BME280;40775;51.448;4.742;2024-03-02T03:10:12;99835.19;;;7.59;100.00
54882;BME280;40775;51.448;4.742;2024-03-02T03:12:41;99830.75;;;7.54;100.00
54882;BME280;40775;51.448;4.742;2024-03-02T03:15:10;99834.22;;;7.53;100.00
54882;BME280;40775;51.448;4.742;2024-03-02T03:17:38;99841.16;;;7.51;100.00
54882;BME280;40775;51.448;4.742;2024-03-02T03:20:06;99839.44;;;7.53;100.00
54882;BME280;40775;51.448;4.742;2024-03-02T03:22:40;99844.66;;;7.53;100.00
54882;BME280;40775;51.448;4.742;2024-03-02T03:25:07;99839.50;;;7.57;100.00
54882;BME280;40775;51.448;4.742;2024-03-02T03:27:37;99841.19;;;7.54;100.00
54882;BME280;40775;51.448;4.742;2024-03-02T03:30:05;99836.88;;;7.56;100.00
54882;BME280;40775;51.448;4.742;2024-03-02T03:32:33;99848.09;;;7.50;100.00
54882;BME280;40775;51.448;4.742;2024-03-02T03:35:00;99844.78;;;7.60;100.00
54882;BME280;40775;51.448;4.742;2024-03-02T03:37:27;99843.00;;;7.58;100.00
54882;BME280;40775;51.448;4.742;2024-03-02T03:40:03;99857.75;;;7.54;100.00
54882;BME280;40775;51.448;4.742;2024-03-02T03:42:34;99847.16;;;7.45;100.00
54882;BME280;40775;51.448;4.742;2024-03-02T03:45:01;99844.47;;;7.40;100.00
54882;BME280;40775;51.448;4.742;2024-03-02T03:47:28;99851.44;;;7.41;100.00
54882;BME280;40775;51.448;4.742;2024-03-02T03:49:55;99864.34;;;7.34;100.00
54882;BME280;40775;51.448;4.742;2024-03-02T03:52:23;99856.47;;;7.31;100.00
54882;BME280;40775;51.448;4.742;2024-03-02T03:54:50;99859.03;;;7.28;100.00
54882;BME280;40775;51.448;4.742;2024-03-02T03:57:17;99857.28;;;7.27;100.00
54882;BME280;40775;51.448;4.742;2024-03-02T03:59:44;99853.72;;;7.22;100.00
54882;BME280;40775;51.448;4.742;2024-03-02T04:02:13;99858.06;;;7.23;100.00
54882;BME280;40775;51.448;4.742;2024-03-02T04:04:40;99858.94;;;7.22;100.00
54882;BME280;40775;51.448;4.742;2024-03-02T04:07:07;99857.22;;;7.24;100.00
54882;BME280;40775;51.448;4.742;2024-03-02T04:09:34;99851.16;;;7.25;100.00
54882;BME280;40775;51.448;4.742;2024-03-02T04:12:01;99857.31;;;7.30;100.00
54882;BME280;40775;51.448;4.742;2024-03-02T04:14:28;99859.00;;;7.26;100.00
54882;BME280;40775;51.448;4.742;2024-03-02T04:16:55;99861.66;;;7.29;100.00
54882;BME280;40775;51.448;4.742;2024-03-02T04:19:22;99860.84;;;7.32;100.00
54882;BME280;40775;51.448;4.742;2024-03-02T04:21:49;99865.09;;;7.27;100.00
54882;BME280;40775;51.448;4.742;2024-03-02T04:24:16;99858.09;;;7.24;100.00
54882;BME280;40775;51.448;4.742;2024-03-02T04:26:43;99860.78;;;7.29;100.00
54882;BME280;40775;51.448;4.742;2024-03-02T04:29:10;99867.63;;;7.21;100.00
54882;BME280;40775;51.448;4.742;2024-03-02T04:31:37;99872.00;;;7.23;100.00
54882;BME280;40775;51.448;4.742;2024-03-02T04:34:04;99860.59;;;7.17;100.00
54882;BME280;40775;51.448;4.742;2024-03-02T04:36:32;99867.47;;;7.13;100.00
54882;BME280;40775;51.448;4.742;2024-03-02T04:38:59;99865.84;;;7.20;100.00
54882;BME280;40775;51.448;4.742;2024-03-02T04:41:26;99869.97;;;7.08;100.00
54882;BME280;40775;51.448;4.742;2024-03-02T04:43:53;99874.25;;;7.05;100.00
54882;BME280;40775;51.448;4.742;2024-03-02T04:46:20;99875.03;;;6.99;100.00
54882;BME280;40775;51.448;4.742;2024-03-02T04:48:47;99869.69;;;6.92;100.00
54882;BME280;40775;51.448;4.742;2024-03-02T04:51:15;99877.56;;;6.95;100.00
54882;BME280;40775;51.448;4.742;2024-03-02T04:53:42;99874.13;;;6.97;100.00
54882;BME280;40775;51.448;4.742;2024-03-02T04:56:10;99877.59;;;6.96;100.00
54882;BME280;40775;51.448;4.742;2024-03-02T04:58:54;99888.06;;;6.98;100.00
54882;BME280;40775;51.448;4.742;2024-03-02T05:01:21;99876.69;;;6.94;100.00
54882;BME280;40775;51.448;4.742;2024-03-02T05:03:48;99881.06;;;6.95;100.00
54882;BME280;40775;51.448;4.742;2024-03-02T05:06:15;99883.75;;;7.00;100.00
54882;BME280;40775;51.448;4.742;2024-03-02T05:08:42;99888.00;;;6.95;100.00
54882;BME280;40775;51.448;4.742;2024-03-02T05:11:11;99887.06;;;6.91;100.00
54882;BME280;40775;51.448;4.742;2024-03-02T05:13:57;99901.97;;;6.98;100.00
54882;BME280;40775;51.448;4.742;2024-03-02T05:16:24;99890.56;;;6.92;100.00
54882;BME280;40775;51.448;4.742;2024-03-02T05:18:51;99899.22;;;6.91;100.00
54882;BME280;40775;51.448;4.742;2024-03-02T05:21:18;99898.47;;;6.96;100.00
54882;BME280;40775;51.448;4.742;2024-03-02T05:23:45;99898.34;;;6.90;100.00
54882;BME280;40775;51.448;4.742;2024-03-02T05:26:12;99898.41;;;6.93;100.00
54882;BME280;40775;51.448;4.742;2024-03-02T05:28:40;99907.25;;;7.01;100.00
54882;BME280;40775;51.448;4.742;2024-03-02T05:31:10;99909.84;;;7.00;100.00
54882;BME280;40775;51.448;4.742;2024-03-02T05:33:38;99899.44;;;7.01;100.00
54882;BME280;40775;51.448;4.742;2024-03-02T05:36:06;99911.69;;;7.05;100.00
54882;BME280;40775;51.448;4.742;2024-03-02T05:38:37;99905.53;;;7.03;100.00
54882;BME280;40775;51.448;4.742;2024-03-02T05:41:04;99906.56;;;7.11;100.00
54882;BME280;40775;51.448;4.742;2024-03-02T05:43:31;99902.03;;;7.01;100.00
54882;BME280;40775;51.448;4.742;2024-03-02T05:45:59;99910.78;;;7.03;100.00
54882;BME280;40775;51.448;4.742;2024-03-02T05:48:26;99898.69;;;7.08;100.00
54882;BME280;40775;51.448;4.742;2024-03-02T05:50:53;99898.59;;;7.04;100.00
54882;BME280;40775;51.448;4.742;2024-03-02T05:53:20;99903.72;;;6.98;100.00
54882;BME280;40775;51.448;4.742;2024-03-02T05:55:47;99895.84;;;6.96;100.00
54882;BME280;40775;51.448;4.742;2024-03-02T05:58:20;99901.09;;;6.98;100.00
54882;BME280;40775;51.448;4.742;2024-03-02T06:01:05;99892.38;;;6.96;100.00
54882;BME280;40775;51.448;4.742;2024-03-02T06:03:33;99902.72;;;6.91;100.00
54882;BME280;40775;51.448;4.742;2024-03-02T06:06:00;99903.72;;;6.99;100.00
54882;BME280;40775;51.448;4.742;2024-03-02T06:08:27;99907.03;;;6.89;100.00
54882;BME280;40775;51.448;4.742;2024-03-02T06:10:54;99910.50;;;6.90;100.00
54882;BME280;40775;51.448;4.742;2024-03-02T06:13:23;99906.91;;;6.85;100.00
54882;BME280;40775;51.448;4.742;2024-03-02T06:15:50;99912.13;;;6.85;100.00
54882;BME280;40775;51.448;4.742;2024-03-02T06:18:31;99914.66;;;6.81;100.00
54882;BME280;40775;51.448;4.742;2024-03-02T06:21:03;99918.13;;;6.80;100.00
54882;BME280;40775;51.448;4.742;2024-03-02T06:23:30;99919.06;;;6.84;100.00
54882;BME280;40775;51.448;4.742;2024-03-02T06:25:57;99920.63;;;6.74;100.00
54882;BME280;40775;51.448;4.742;2024-03-02T06:28:24;99921.44;;;6.72;100.00
54882;BME280;40775;51.448;4.742;2024-03-02T06:30:51;99922.22;;;6.68;100.00
54882;BME280;40775;51.448;4.742;2024-03-02T06:33:18;99930.13;;;6.71;100.00
54882;BME280;40775;51.448;4.742;2024-03-02T06:35:45;99934.22;;;6.60;100.00
54882;BME280;40775;51.448;4.742;2024-03-02T06:38:12;99931.97;;;6.76;100.00
54882;BME280;40775;51.448;4.742;2024-03-02T06:40:39;99932.56;;;6.63;100.00
54882;BME280;40775;51.448;4.742;2024-03-02T06:43:07;99936.09;;;6.65;100.00
54882;BME280;40775;51.448;4.742;2024-03-02T06:45:34;99944.72;;;6.63;100.00
54882;BME280;40775;51.448;4.742;2024-03-02T06:48:01;99934.13;;;6.57;100.00
54882;BME280;40775;51.448;4.742;2024-03-02T06:50:28;99940.41;;;6.63;100.00
54882;BME280;40775;51.448;4.742;2024-03-02T06:52:55;99941.34;;;6.67;100.00
54882;BME280;40775;51.448;4.742;2024-03-02T06:55:23;99948.19;;;6.62;100.00
54882;BME280;40775;51.448;4.742;2024-03-02T06:57:51;99936.03;;;6.62;100.00
54882;BME280;40775;51.448;4.742;2024-03-02T07:00:19;99939.34;;;6.57;100.00
54882;BME280;40775;51.448;4.742;2024-03-02T07:02:47;99948.06;;;6.57;100.00
54882;BME280;40775;51.448;4.742;2024-03-02T07:05:14;99947.16;;;6.57;100.00
54882;BME280;40775;51.448;4.742;2024-03-02T07:07:41;99959.44;;;6.59;100.00
54882;BME280;40775;51.448;4.742;2024-03-02T07:10:08;99958.44;;;6.56;100.00
54882;BME280;40775;51.448;4.742;2024-03-02T07:12:37;99961.78;;;6.48;100.00
54882;BME280;40775;51.448;4.742;2024-03-02T07:15:04;99960.22;;;6.57;100.00
54882;BME280;40775;51.448;4.742;2024-03-02T07:17:32;99968.00;;;6.55;100.00
54882;BME280;40775;51.448;4.742;2024-03-02T07:19:59;99968.75;;;6.49;100.00
54882;BME280;40775;51.448;4.742;2024-03-02T07:22:26;99975.75;;;6.52;100.00
54882;BME280;40775;51.448;4.742;2024-03-02T07:24:53;99967.13;;;6.55;100.00
54882;BME280;40775;51.448;4.742;2024-03-02T07:27:20;99974.03;;;6.53;100.00
54882;BME280;40775;51.448;4.742;2024-03-02T07:29:48;99977.56;;;6.55;100.00
54882;BME280;40775;51.448;4.742;2024-03-02T07:32:15;99968.97;;;6.59;100.00
54882;BME280;40775;51.448;4.742;2024-03-02T07:34:42;99974.09;;;6.56;100.00
54882;BME280;40775;51.448;4.742;2024-03-02T07:37:09;99977.59;;;6.56;100.00
54882;BME280;40775;51.448;4.742;2024-03-02T07:39:36;99972.69;;;6.70;100.00
54882;BME280;40775;51.448;4.742;2024-03-02T07:42:04;99978.03;;;6.76;100.00
54882;BME280;40775;51.448;4.742;2024-03-02T07:44:33;99973.66;;;6.75;100.00
54882;BME280;40775;51.448;4.742;2024-03-02T07:47:00;99971.13;;;6.78;100.00
54882;BME280;40775;51.448;4.742;2024-03-02T07:49:27;99975.44;;;6.77;100.00
54882;BME280;40775;51.448;4.742;2024-03-02T07:51:57;99975.69;;;6.88;100.00
54882;BME280;40775;51.448;4.742;2024-03-02T07:54:24;99974.06;;;6.93;100.00
54882;BME280;40775;51.448;4.742;2024-03-02T07:56:51;99966.28;;;6.96;100.00
54882;BME280;40775;51.448;4.742;2024-03-02T07:59:19;99965.66;;;7.08;100.00
54882;BME280;40775;51.448;4.742;2024-03-02T08:01:46;99968.28;;;7.09;100.00
54882;BME280;40775;51.448;4.742;2024-03-02T08:04:13;99962.34;;;7.15;100.00
54882;BME280;40775;51.448;4.742;2024-03-02T08:06:41;99960.84;;;7.28;100.00
54882;BME280;40775;51.448;4.742;2024-03-02T08:09:08;99951.22;;;7.25;100.00
54882;BME280;40775;51.448;4.742;2024-03-02T08:11:38;99960.84;;;7.28;100.00
54882;BME280;40775;51.448;4.742;2024-03-02T08:14:05;99967.13;;;7.39;100.00
54882;BME280;40775;51.448;4.742;2024-03-02T08:16:32;99960.38;;;7.50;100.00
54882;BME280;40775;51.448;4.742;2024-03-02T08:19:00;99963.06;;;7.53;100.00
54882;BME280;40775;51.448;4.742;2024-03-02T08:21:27;99965.75;;;7.58;100.00
54882;BME280;40775;51.448;4.742;2024-03-02T08:23:57;99959.69;;;7.60;100.00
54882;BME280;40775;51.448;4.742;2024-03-02T08:26:25;99969.41;;;7.67;100.00
54882;BME280;40775;51.448;4.742;2024-03-02T08:28:52;99956.56;;;7.80;100.00
54882;BME280;40775;51.448;4.742;2024-03-02T08:31:20;99960.22;;;7.91;100.00
54882;BME280;40775;51.448;4.742;2024-03-02T08:33:47;99965.56;;;7.95;100.00
54882;BME280;40775;51.448;4.742;2024-03-02T08:36:14;99956.06;;;8.02;100.00
54882;BME280;40775;51.448;4.742;2024-03-02T08:38:42;99952.59;;;8.03;100.00
54882;BME280;40775;51.448;4.742;2024-03-02T08:41:11;99964.84;;;8.07;100.00
54882;BME280;40775;51.448;4.742;2024-03-02T08:43:41;99959.94;;;8.25;100.00
54882;BME280;40775;51.448;4.742;2024-03-02T08:46:09;99959.09;;;8.28;100.00
54882;BME280;40775;51.448;4.742;2024-03-02T08:48:36;99961.00;;;8.38;100.00
54882;BME280;40775;51.448;4.742;2024-03-02T08:51:03;99963.66;;;8.40;100.00
54882;BME280;40775;51.448;4.742;2024-03-02T08:53:33;99975.06;;;8.45;100.00
54882;BME280;40775;51.448;4.742;2024-03-02T08:56:00;99975.16;;;8.49;100.00
54882;BME280;40775;51.448;4.742;2024-03-02T08:58:29;99978.75;;;8.59;100.00
54882;BME280;40775;51.448;4.742;2024-03-02T09:00:56;99975.44;;;8.71;100.00
54882;BME280;40775;51.448;4.742;2024-03-02T09:03:23;99981.50;;;8.68;100.00
54882;BME280;40775;51.448;4.742;2024-03-02T09:05:50;99979.09;;;8.83;100.00
54882;BME280;40775;51.448;4.742;2024-03-02T09:08:17;99976.56;;;8.89;100.00
54882;BME280;40775;51.448;4.742;2024-03-02T09:10:44;99979.09;;;8.82;100.00
54882;BME280;40775;51.448;4.742;2024-03-02T09:13:11;99979.16;;;8.86;100.00
54882;BME280;40775;51.448;4.742;2024-03-02T09:15:39;99973.28;;;9.06;100.00
54882;BME280;40775;51.448;4.742;2024-03-02T09:18:06;99983.88;;;9.15;100.00
54882;BME280;40775;51.448;4.742;2024-03-02T09:20:34;99972.53;;;9.16;100.00
54882;BME280;40775;51.448;4.742;2024-03-02T09:23:01;99971.72;;;9.23;100.00
54882;BME280;40775;51.448;4.742;2024-03-02T09:25:28;99965.66;;;9.25;100.00
54882;BME280;40775;51.448;4.742;2024-03-02T09:27:55;99965.78;;;9.35;100.00
54882;BME280;40775;51.448;4.742;2024-03-02T09:30:22;99967.56;;;9.40;100.00
54882;BME280;40775;51.448;4.742;2024-03-02T09:32:49;99974.66;;;9.50;100.00
54882;BME280;40775;51.448;4.742;2024-03-02T09:35:16;99972.19;;;9.63;100.00
54882;BME280;40775;51.448;4.742;2024-03-02T09:37:45;99971.34;;;9.67;100.00
54882;BME280;40775;51.448;4.742;2024-03-02T09:40:13;99975.75;;;9.71;100.00
54882;BME280;40775;51.448;4.742;2024-03-02T09:42:41;99967.03;;;9.72;100.00
54882;BME280;40775;51.448;4.742;2024-03-02T09:45:09;99960.09;;;9.80;100.00
54882;BME280;40775;51.448;4.742;2024-03-02T09:47:36;99965.44;;;9.89;100.00
54882;BME280;40775;51.448;4.742;2024-03-02T09:50:03;99960.28;;;10.01;100.00
54882;BME280;40775;51.448;4.742;2024-03-02T09:52:30;99965.59;;;10.10;100.00
54882;BME280;40775;51.448;4.742;2024-03-02T09:54:58;99961.25;;;10.12;100.00
54882;BME280;40775;51.448;4.742;2024-03-02T09:57:25;99950.00;;;10.23;100.00
54882;BME280;40775;51.448;4.742;2024-03-02T09:59:52;99941.34;;;10.36;100.00
54882;BME280;40775;51.448;4.742;2024-03-02T10:02:19;99941.34;;;10.37;100.00
54882;BME280;40775;51.448;4.742;2024-03-02T10:04:49;99942.28;;;10.41;100.00
54882;BME280;40775;51.448;4.742;2024-03-02T10:07:18;99932.69;;;10.49;100.00
54882;BME280;40775;51.448;4.742;2024-03-02T10:09:47;99929.25;;;10.59;100.00
54882;BME280;40775;51.448;4.742;2024-03-02T10:12:19;99934.50;;;10.59;100.00
54882;BME280;40775;51.448;4.742;2024-03-02T10:14:46;99924.94;;;10.69;100.00
54882;BME280;40775;51.448;4.742;2024-03-02T10:17:17;99931.09;;;10.74;100.00
54882;BME280;40775;51.448;4.742;2024-03-02T10:19:45;99924.09;;;10.77;100.00
54882;BME280;40775;51.448;4.742;2024-03-02T10:22:12;99917.13;;;10.87;100.00
54882;BME280;40775;51.448;4.742;2024-03-02T10:24:42;99917.22;;;11.05;100.00
54882;BME280;40775;51.448;4.742;2024-03-02T10:27:27;99911.09;;;11.14;100.00
54882;BME280;40775;51.448;4.742;2024-03-02T10:29:54;99908.47;;;11.12;100.00
54882;BME280;40775;51.448;4.742;2024-03-02T10:32:22;99901.47;;;11.08;100.00
54882;BME280;40775;51.448;4.742;2024-03-02T10:34:50;99906.75;;;11.22;100.00
54882;BME280;40775;51.448;4.742;2024-03-02T10:37:17;99903.28;;;11.29;100.00
54882;BME280;40775;51.448;4.742;2024-03-02T10:39:46;99899.78;;;11.39;100.00
54882;BME280;40775;51.448;4.742;2024-03-02T10:42:14;99905.06;;;11.61;100.00
54882;BME280;40775;51.448;4.742;2024-03-02T10:44:42;99908.56;;;11.75;100.00
54882;BME280;40775;51.448;4.742;2024-03-02T10:47:12;99911.22;;;11.63;100.00
54882;BME280;40775;51.448;4.742;2024-03-02T10:49:42;99906.00;;;11.80;100.00
54882;BME280;40775;51.448;4.742;2024-03-02T10:52:10;99912.16;;;11.80;100.00
54882;BME280;40775;51.448;4.742;2024-03-02T10:54:37;99900.69;;;11.69;100.00
54882;BME280;40775;51.448;4.742;2024-03-02T10:57:08;99907.75;;;11.84;100.00
54882;BME280;40775;51.448;4.742;2024-03-02T10:59:40;99908.63;;;11.93;100.00
54882;BME280;40775;51.448;4.742;2024-03-02T11:02:11;99905.13;;;11.94;100.00
54882;BME280;40775;51.448;4.742;2024-03-02T11:04:39;99902.50;;;11.90;100.00
54882;BME280;40775;51.448;4.742;2024-03-02T11:07:09;99897.22;;;11.99;100.00
54882;BME280;40775;51.448;4.742;2024-03-02T11:09:42;99899.00;;;12.06;100.00
54882;BME280;40775;51.448;4.742;2024-03-02T11:12:15;99888.47;;;12.07;100.00
54882;BME280;40775;51.448;4.742;2024-03-02T11:14:46;99891.94;;;12.14;100.00
54882;BME280;40775;51.448;4.742;2024-03-02T11:17:14;99892.81;;;12.18;100.00
54882;BME280;40775;51.448;4.742;2024-03-02T11:19:45;99882.31;;;12.15;100.00
54882;BME280;40775;51.448;4.742;2024-03-02T11:22:13;99882.31;;;12.18;100.00
54882;BME280;40775;51.448;4.742;2024-03-02T11:24:51;99888.41;;;12.26;100.00
54882;BME280;40775;51.448;4.742;2024-03-02T11:33:08;99863.81;;;12.42;100.00
54882;BME280;40775;51.448;4.742;2024-03-02T11:35:42;99862.00;;;12.59;100.00
54882;BME280;40775;51.448;4.742;2024-03-02T11:38:10;99862.00;;;12.56;100.00
54882;BME280;40775;51.448;4.742;2024-03-02T11:40:39;99858.53;;;12.51;100.00
54882;BME280;40775;51.448;4.742;2024-03-02T11:43:07;99852.38;;;12.61;100.00
54882;BME280;40775;51.448;4.742;2024-03-02T11:45:36;99845.28;;;12.71;100.00
54882;BME280;40775;51.448;4.742;2024-03-02T11:48:09;99850.56;;;12.69;100.00
54882;BME280;40775;51.448;4.742;2024-03-02T11:50:41;99847.97;;;12.57;100.00
54882;BME280;40775;51.448;4.742;2024-03-02T11:53:10;99838.22;;;12.79;100.00
54882;BME280;40775;51.448;4.742;2024-03-02T11:55:38;99840.81;;;12.87;100.00
54882;BME280;40775;51.448;4.742;2024-03-02T11:58:07;99835.53;;;12.87;100.00
54882;BME280;40775;51.448;4.742;2024-03-02T12:00:34;99836.34;;;13.03;100.00
54882;BME280;40775;51.448;4.742;2024-03-02T12:03:07;99832.81;;;13.07;100.00
54882;BME280;40775;51.448;4.742;2024-03-02T12:05:36;99807.28;;;13.16;100.00
54882;BME280;40775;51.448;4.742;2024-03-02T12:08:05;99809.94;;;13.15;100.00
54882;BME280;40775;51.448;4.742;2024-03-02T12:10:36;99802.81;;;13.30;100.00
54882;BME280;40775;51.448;4.742;2024-03-02T12:13:06;99798.38;;;13.34;100.00
54882;BME280;40775;51.448;4.742;2024-03-02T12:15:36;99794.84;;;13.38;100.00
54882;BME280;40775;51.448;4.742;2024-03-02T12:18:07;99782.50;;;13.40;100.00
54882;BME280;40775;51.448;4.742;2024-03-02T12:20:34;99786.03;;;13.44;100.00
54882;BME280;40775;51.448;4.742;2024-03-02T12:23:04;99786.09;;;13.35;100.00
54882;BME280;40775;51.448;4.742;2024-03-02T12:25:32;99794.84;;;13.35;100.00
54882;BME280;40775;51.448;4.742;2024-03-02T12:28:02;99789.66;;;13.26;100.00
54882;BME280;40775;51.448;4.742;2024-03-02T12:30:32;99789.63;;;13.30;100.00
54882;BME280;40775;51.448;4.742;2024-03-02T12:33:03;99786.94;;;13.37;100.00
54882;BME280;40775;51.448;4.742;2024-03-02T12:35:30;99775.41;;;13.50;100.00
54882;BME280;40775;51.448;4.742;2024-03-02T12:37:57;99773.56;;;13.61;100.00
54882;BME280;40775;51.448;4.742;2024-03-02T12:40:25;99769.97;;;13.68;100.00
54882;BME280;40775;51.448;4.742;2024-03-02T12:42:52;99762.81;;;13.81;100.00
54882;BME280;40775;51.448;4.742;2024-03-02T12:45:19;99764.66;;;13.73;100.00
54882;BME280;40775;51.448;4.742;2024-03-02T12:47:52;99761.88;;;13.86;100.00
54882;BME280;40775;51.448;4.742;2024-03-02T12:50:21;99756.56;;;13.88;100.00
54882;BME280;40775;51.448;4.742;2024-03-02T12:52:53;99760.00;;;13.96;100.00
54882;BME280;40775;51.448;4.742;2024-03-02T12:55:22;99758.94;;;14.14;100.00
54882;BME280;40775;51.448;4.742;2024-03-02T12:57:51;99759.06;;;14.03;100.00
54882;BME280;40775;51.448;4.742;2024-03-02T13:00:20;99755.59;;;13.97;100.00
54882;BME280;40775;51.448;4.742;2024-03-02T13:02:48;99755.72;;;13.87;100.00
54882;BME280;40775;51.448;4.742;2024-03-02T13:05:16;99763.69;;;13.81;100.00
54882;BME280;40775;51.448;4.742;2024-03-02T13:07:43;99757.50;;;13.85;100.00
54882;BME280;40775;51.448;4.742;2024-03-02T13:10:12;99750.47;;;13.83;100.00
54882;BME280;40775;51.448;4.742;2024-03-02T13:12:40;99749.69;;;13.76;100.00
54882;BME280;40775;51.448;4.742;2024-03-02T13:15:08;99745.25;;;13.80;100.00